createdAt,value
2019-04-30T00:00:38.261Z,978.74
2019-04-30T00:01:36.230Z,978.72
2019-04-30T00:02:39.881Z,978.72
2019-04-30T00:03:35.401Z,978.69
2019-04-30T00:04:40.273Z,978.70
2019-04-30T00:05:35.354Z,978.72
2019-04-30T00:06:39.325Z,978.68
2019-04-30T00:07:35.753Z,978.68
2019-04-30T00:08:38.978Z,978.72
2019-04-30T00:09:35.199Z,978.69
2019-04-30T00:10:36.978Z,978.69
2019-04-30T00:11:36.298Z,978.69
2019-04-30T00:12:35.958Z,978.67
2019-04-30T00:13:35.911Z,978.66
2019-04-30T00:14:38.641Z,978.68
2019-04-30T00:15:35.716Z,978.66
2019-04-30T00:16:36.222Z,978.64
2019-04-30T00:17:35.868Z,978.66
2019-04-30T00:18:35.882Z,978.66
2019-04-30T00:19:35.835Z,978.64
2019-04-30T00:20:37.193Z,978.63
2019-04-30T00:21:33.833Z,978.66
2019-04-30T00:22:34.525Z,978.64
2019-04-30T00:23:33.666Z,978.63
2019-04-30T00:24:35.341Z,978.64
2019-04-30T00:25:35.199Z,978.60
2019-04-30T00:26:35.296Z,978.58
2019-04-30T00:27:33.334Z,978.57
2019-04-30T00:28:33.252Z,978.56
2019-04-30T00:29:33.171Z,978.56
2019-04-30T00:30:34.915Z,978.53
2019-04-30T00:31:34.833Z,978.48
2019-04-30T00:32:39.375Z,978.50
2019-04-30T00:33:32.843Z,978.50
2019-04-30T00:34:35.910Z,978.51
2019-04-30T00:35:32.671Z,978.48
2019-04-30T00:36:33.981Z,978.46
2019-04-30T00:37:32.509Z,978.48
2019-04-30T00:38:34.262Z,978.43
2019-04-30T00:39:32.346Z,978.42
2019-04-30T00:40:32.264Z,978.39
2019-04-30T00:41:32.179Z,978.42
2019-04-30T00:42:32.098Z,978.37
2019-04-30T00:43:32.011Z,978.38
2019-04-30T00:44:31.935Z,978.41
2019-04-30T00:45:31.850Z,978.41
2019-04-30T00:46:31.769Z,978.37
2019-04-30T00:47:31.687Z,978.37
2019-04-30T00:48:31.603Z,978.34
2019-04-30T00:49:31.525Z,978.35
2019-04-30T00:50:33.921Z,978.30
2019-04-30T00:51:31.354Z,978.24
2019-04-30T00:52:33.965Z,978.22
2019-04-30T00:53:31.185Z,978.19
2019-04-30T00:54:31.109Z,978.20
2019-04-30T00:55:31.022Z,978.16
2019-04-30T00:56:30.943Z,978.20
2019-04-30T00:57:30.861Z,978.15
2019-04-30T00:58:30.776Z,978.09
2019-04-30T00:59:30.692Z,978.09
2019-04-30T01:00:30.612Z,978.00
2019-04-30T01:01:30.531Z,977.96
2019-04-30T01:02:32.290Z,977.93
2019-04-30T01:03:30.363Z,977.92
2019-04-30T01:04:30.288Z,977.92
2019-04-30T01:05:30.200Z,977.93
2019-04-30T01:06:30.116Z,977.92
2019-04-30T01:07:30.035Z,977.94
2019-04-30T01:08:29.953Z,977.94
2019-04-30T01:09:29.870Z,977.98
2019-04-30T01:10:29.789Z,977.98
2019-04-30T01:11:29.696Z,977.96
2019-04-30T01:12:35.955Z,977.98
2019-04-30T01:13:29.538Z,977.98
2019-04-30T01:14:32.016Z,977.95
2019-04-30T01:15:29.377Z,977.95
2019-04-30T01:16:32.865Z,977.99
2019-04-30T01:17:29.997Z,977.96
2019-04-30T01:18:32.052Z,977.96
2019-04-30T01:19:32.249Z,977.94
2019-04-30T01:20:32.660Z,977.93
2019-04-30T01:21:28.873Z,977.93
2019-04-30T01:22:32.769Z,977.91
2019-04-30T01:23:29.612Z,977.95
2019-04-30T01:24:31.641Z,977.93
2019-04-30T01:25:28.865Z,977.96
2019-04-30T01:26:31.050Z,977.93
2019-04-30T01:27:28.439Z,977.91
2019-04-30T01:28:28.486Z,977.93
2019-04-30T01:29:31.109Z,977.92
2019-04-30T01:30:28.523Z,977.96
2019-04-30T01:31:31.653Z,977.94
2019-04-30T01:32:28.463Z,977.95
2019-04-30T01:33:34.396Z,977.93
2019-04-30T01:34:29.387Z,977.95
2019-04-30T01:35:31.284Z,977.95
2019-04-30T01:36:29.340Z,977.93
2019-04-30T01:37:29.621Z,977.94
2019-04-30T01:38:28.688Z,977.92
2019-04-30T01:39:28.478Z,977.95
2019-04-30T01:40:28.550Z,977.95
2019-04-30T01:41:31.134Z,977.94
2019-04-30T01:42:28.431Z,977.95
2019-04-30T01:43:31.746Z,977.95
2019-04-30T01:44:26.979Z,977.92
2019-04-30T01:45:28.107Z,977.92
2019-04-30T01:46:26.814Z,977.91
2019-04-30T01:47:28.095Z,977.90
2019-04-30T01:48:26.644Z,977.88
2019-04-30T01:49:27.211Z,977.88
2019-04-30T01:50:26.484Z,977.89
2019-04-30T01:51:26.400Z,977.89
2019-04-30T01:52:29.149Z,977.87
2019-04-30T01:53:26.234Z,977.93
2019-04-30T01:54:26.153Z,977.87
2019-04-30T01:55:26.116Z,977.88
2019-04-30T01:56:25.988Z,977.85
2019-04-30T01:57:25.909Z,977.80
2019-04-30T01:58:25.821Z,977.81
2019-04-30T01:59:25.747Z,977.78
2019-04-30T02:00:25.664Z,977.79
2019-04-30T02:01:25.578Z,977.76
2019-04-30T02:02:25.516Z,977.71
2019-04-30T02:03:25.414Z,977.72
2019-04-30T02:04:25.329Z,977.70
2019-04-30T02:05:25.250Z,977.74
2019-04-30T02:06:25.166Z,977.71
2019-04-30T02:07:25.085Z,977.71
2019-04-30T02:08:25.013Z,977.67
2019-04-30T02:09:24.920Z,977.71
2019-04-30T02:10:24.839Z,977.69
2019-04-30T02:11:24.760Z,977.69
2019-04-30T02:12:24.670Z,977.68
2019-04-30T02:13:24.587Z,977.68
2019-04-30T02:14:24.512Z,977.69
2019-04-30T02:15:24.424Z,977.72
2019-04-30T02:16:24.343Z,977.69
2019-04-30T02:17:24.287Z,977.73
2019-04-30T02:18:24.179Z,977.75
2019-04-30T02:19:24.094Z,977.70
2019-04-30T02:20:24.013Z,977.73
2019-04-30T02:21:23.943Z,977.71
2019-04-30T02:22:23.854Z,977.72
2019-04-30T02:23:23.767Z,977.69
2019-04-30T02:24:23.683Z,977.67
2019-04-30T02:25:23.609Z,977.66
2019-04-30T02:26:23.517Z,977.64
2019-04-30T02:27:23.436Z,977.65
2019-04-30T02:28:23.357Z,977.63
2019-04-30T02:29:23.276Z,977.64
2019-04-30T02:30:23.193Z,977.62
2019-04-30T02:31:23.219Z,977.67
2019-04-30T02:32:23.028Z,977.65
2019-04-30T02:33:22.949Z,977.68
2019-04-30T02:34:22.862Z,977.65
2019-04-30T02:35:22.779Z,977.66
2019-04-30T02:36:22.697Z,977.69
2019-04-30T02:37:22.615Z,977.66
2019-04-30T02:38:22.533Z,977.69
2019-04-30T02:39:22.454Z,977.68
2019-04-30T02:40:22.368Z,977.70
2019-04-30T02:41:22.292Z,977.64
2019-04-30T02:42:22.219Z,977.68
2019-04-30T02:43:22.118Z,977.67
2019-04-30T02:44:22.050Z,977.64
2019-04-30T02:45:21.957Z,977.68
2019-04-30T02:46:21.877Z,977.66
2019-04-30T02:47:21.797Z,977.65
2019-04-30T02:48:21.710Z,977.67
2019-04-30T02:49:21.627Z,977.65
2019-04-30T02:50:22.590Z,977.62
2019-04-30T02:51:22.990Z,977.70
2019-04-30T02:52:21.378Z,977.62
2019-04-30T02:53:21.299Z,977.68
2019-04-30T02:54:23.982Z,977.68
2019-04-30T02:55:21.130Z,977.66
2019-04-30T02:56:21.062Z,977.69
2019-04-30T02:57:23.520Z,977.69
2019-04-30T02:58:21.223Z,977.65
2019-04-30T02:59:20.805Z,977.66
2019-04-30T03:00:21.088Z,977.64
2019-04-30T03:01:20.677Z,977.63
2019-04-30T03:02:20.552Z,977.69
2019-04-30T03:03:20.572Z,977.63
2019-04-30T03:04:20.404Z,977.63
2019-04-30T03:05:20.473Z,977.62
2019-04-30T03:06:23.605Z,977.61
2019-04-30T03:07:20.150Z,977.57
2019-04-30T03:08:20.071Z,977.64
2019-04-30T03:09:20.447Z,977.63
2019-04-30T03:10:20.109Z,977.61
2019-04-30T03:11:20.623Z,977.55
2019-04-30T03:12:20.227Z,977.56
2019-04-30T03:13:20.184Z,977.54
2019-04-30T03:14:20.193Z,977.51
2019-04-30T03:15:22.705Z,977.51
2019-04-30T03:16:20.857Z,977.55
2019-04-30T03:17:20.929Z,977.54
2019-04-30T03:18:19.583Z,977.54
2019-04-30T03:19:19.678Z,977.50
2019-04-30T03:20:30.986Z,977.46
2019-04-30T03:21:19.230Z,977.49
2019-04-30T03:22:20.367Z,977.44
2019-04-30T03:23:19.556Z,977.47
2019-04-30T03:24:20.208Z,977.49
2019-04-30T03:25:19.327Z,977.46
2019-04-30T03:26:20.024Z,977.48
2019-04-30T03:27:21.083Z,977.45
2019-04-30T03:28:20.140Z,977.45
2019-04-30T03:29:20.405Z,977.47
2019-04-30T03:30:21.853Z,977.44
2019-04-30T03:31:22.000Z,977.44
2019-04-30T03:32:22.486Z,977.43
2019-04-30T03:33:22.308Z,977.44
2019-04-30T03:34:24.715Z,977.46
2019-04-30T03:35:22.321Z,977.44
2019-04-30T03:36:21.719Z,977.45
2019-04-30T03:37:19.822Z,977.42
2019-04-30T03:38:20.290Z,977.46
2019-04-30T03:39:19.778Z,977.46
2019-04-30T03:40:20.072Z,977.46
2019-04-30T03:41:19.831Z,977.46
2019-04-30T03:42:19.691Z,977.48
2019-04-30T03:43:17.178Z,977.49
2019-04-30T03:44:22.594Z,977.48
2019-04-30T03:45:17.016Z,977.51
2019-04-30T03:46:19.295Z,977.51
2019-04-30T03:47:16.847Z,977.50
2019-04-30T03:48:19.805Z,977.51
2019-04-30T03:49:16.683Z,977.56
2019-04-30T03:50:19.608Z,977.55
2019-04-30T03:51:16.523Z,977.50
2019-04-30T03:52:16.435Z,977.57
2019-04-30T03:53:16.356Z,977.56
2019-04-30T03:54:16.268Z,977.59
2019-04-30T03:55:16.202Z,977.57
2019-04-30T03:56:16.107Z,977.61
2019-04-30T03:57:16.027Z,977.63
2019-04-30T03:58:15.942Z,977.59
2019-04-30T03:59:15.862Z,977.63
2019-04-30T04:00:15.774Z,977.61
2019-04-30T04:01:15.694Z,977.57
2019-04-30T04:02:15.608Z,977.61
2019-04-30T04:03:15.525Z,977.65
2019-04-30T04:04:15.440Z,977.66
2019-04-30T04:05:15.368Z,977.63
2019-04-30T04:06:15.279Z,977.65
2019-04-30T04:07:15.200Z,977.68
2019-04-30T04:08:15.112Z,977.66
2019-04-30T04:09:15.036Z,977.70
2019-04-30T04:10:14.946Z,977.64
2019-04-30T04:11:14.865Z,977.67
2019-04-30T04:12:14.778Z,977.68
2019-04-30T04:13:14.704Z,977.64
2019-04-30T04:14:14.629Z,977.67
2019-04-30T04:15:14.546Z,977.66
2019-04-30T04:16:14.458Z,977.68
2019-04-30T04:17:14.374Z,977.70
2019-04-30T04:18:14.288Z,977.68
2019-04-30T04:19:14.203Z,977.69
2019-04-30T04:20:14.123Z,977.69
2019-04-30T04:21:17.015Z,977.75
2019-04-30T04:22:13.956Z,977.72
2019-04-30T04:23:13.871Z,977.74
2019-04-30T04:24:13.794Z,977.77
2019-04-30T04:25:13.707Z,977.76
2019-04-30T04:26:13.623Z,977.76
2019-04-30T04:27:13.538Z,977.81
2019-04-30T04:28:13.457Z,977.81
2019-04-30T04:29:13.377Z,977.82
2019-04-30T04:30:13.294Z,977.78
2019-04-30T04:31:13.210Z,977.82
2019-04-30T04:32:13.129Z,977.81
2019-04-30T04:33:13.048Z,977.82
2019-04-30T04:34:12.964Z,977.88
2019-04-30T04:35:13.087Z,977.86
2019-04-30T04:36:12.802Z,977.90
2019-04-30T04:37:12.720Z,977.94
2019-04-30T04:38:12.913Z,977.93
2019-04-30T04:39:12.555Z,977.93
2019-04-30T04:40:12.469Z,977.96
2019-04-30T04:41:12.385Z,977.93
2019-04-30T04:42:12.299Z,977.94
2019-04-30T04:43:12.217Z,977.94
2019-04-30T04:44:13.053Z,977.92
2019-04-30T04:45:12.056Z,977.98
2019-04-30T04:46:11.973Z,978.00
2019-04-30T04:47:12.043Z,977.97
2019-04-30T04:48:11.807Z,977.94
2019-04-30T04:49:11.725Z,977.93
2019-04-30T04:50:11.644Z,977.94
2019-04-30T04:51:27.612Z,977.95
2019-04-30T04:52:11.473Z,977.95
2019-04-30T04:53:11.796Z,977.96
2019-04-30T04:54:11.309Z,977.99
2019-04-30T04:55:11.233Z,977.97
2019-04-30T04:56:11.153Z,978.01
2019-04-30T04:57:17.298Z,977.98
2019-04-30T04:58:12.959Z,977.91
2019-04-30T04:59:10.900Z,977.93
2019-04-30T05:00:10.935Z,977.97
2019-04-30T05:01:11.761Z,978.01
2019-04-30T05:02:10.649Z,977.95
2019-04-30T05:03:10.570Z,977.96
2019-04-30T05:04:11.866Z,977.97
2019-04-30T05:05:10.406Z,977.98
2019-04-30T05:06:11.898Z,977.95
2019-04-30T05:07:10.236Z,978.01
2019-04-30T05:08:10.163Z,978.01
2019-04-30T05:09:10.073Z,977.97
2019-04-30T05:10:10.001Z,978.02
2019-04-30T05:11:09.908Z,977.96
2019-04-30T05:12:09.847Z,977.93
2019-04-30T05:13:09.744Z,977.99
2019-04-30T05:14:11.044Z,978.00
2019-04-30T05:15:09.734Z,978.00
2019-04-30T05:16:09.513Z,978.02
2019-04-30T05:17:09.816Z,978.02
2019-04-30T05:18:09.342Z,978.05
2019-04-30T05:19:09.247Z,978.11
2019-04-30T05:20:09.991Z,978.09
2019-04-30T05:21:09.082Z,978.11
2019-04-30T05:22:16.654Z,978.13
2019-04-30T05:24:13.303Z,978.10
2019-04-30T05:25:13.206Z,978.08
2019-04-30T05:27:17.506Z,978.10
2019-04-30T05:28:18.900Z,978.14
2019-04-30T05:30:21.729Z,978.15
2019-04-30T05:31:21.631Z,978.22
2019-04-30T05:33:14.889Z,978.22
2019-04-30T05:34:14.777Z,978.28
2019-04-30T05:36:19.247Z,978.26
2019-04-30T05:37:18.986Z,978.31
2019-04-30T05:39:23.290Z,978.23
2019-04-30T05:40:23.193Z,978.19
2019-04-30T05:42:28.573Z,978.10
2019-04-30T05:43:28.948Z,978.18
2019-04-30T05:45:33.701Z,978.07
2019-04-30T05:46:31.613Z,978.14
2019-04-30T05:48:35.909Z,978.11
2019-04-30T05:49:35.809Z,978.10
2019-04-30T05:51:52.608Z,978.04
2019-04-30T05:52:40.030Z,978.12
2019-04-30T05:54:43.848Z,978.13
2019-04-30T05:55:43.752Z,978.10
2019-04-30T05:57:56.026Z,978.14
2019-04-30T05:58:49.362Z,978.12
2019-04-30T06:00:51.288Z,978.17
2019-04-30T06:01:51.194Z,978.15
2019-04-30T06:03:55.012Z,978.19
2019-04-30T06:04:54.918Z,978.16
2019-04-30T06:06:58.789Z,978.16
2019-04-30T06:07:59.352Z,978.22
2019-04-30T06:10:02.469Z,978.26
2019-04-30T06:11:02.371Z,978.24
2019-04-30T06:12:56.614Z,978.24
2019-04-30T06:13:58.726Z,978.23
2019-04-30T06:16:05.380Z,978.22
2019-04-30T06:17:05.244Z,978.28
2019-04-30T06:19:12.071Z,978.22
2019-04-30T06:20:18.458Z,978.28
2019-04-30T06:22:16.271Z,978.26
2019-04-30T06:23:16.159Z,978.30
2019-04-30T06:25:31.168Z,978.35
2019-04-30T06:26:20.798Z,978.32
2019-04-30T06:28:24.700Z,978.35
2019-04-30T06:29:24.610Z,978.32
2019-04-30T06:31:34.275Z,978.33
2019-04-30T06:32:29.540Z,978.35
2019-04-30T06:34:33.132Z,978.33
2019-04-30T06:35:33.037Z,978.41
2019-04-30T06:37:39.115Z,978.38
2019-04-30T06:38:38.675Z,978.35
2019-04-30T06:40:41.548Z,978.37
2019-04-30T06:41:41.453Z,978.45
2019-04-30T06:43:34.677Z,978.43
2019-04-30T06:44:39.206Z,978.45
2019-04-30T06:46:38.923Z,978.41
2019-04-30T06:47:39.013Z,978.40
2019-04-30T06:48:39.262Z,978.39
2019-04-30T06:49:39.292Z,978.41
2019-04-30T06:50:39.291Z,978.38
2019-04-30T06:51:38.960Z,978.34
2019-04-30T06:52:39.022Z,978.38
2019-04-30T06:53:39.187Z,978.33
2019-04-30T06:54:39.667Z,978.33
2019-04-30T06:55:39.218Z,978.36
2019-04-30T06:56:38.760Z,978.34
2019-04-30T06:57:38.379Z,978.40
2019-04-30T06:58:38.855Z,978.37
2019-04-30T07:01:10.813Z,978.44
2019-04-30T07:02:10.723Z,978.43
2019-04-30T07:04:15.026Z,978.49
2019-04-30T07:05:14.931Z,978.44
2019-04-30T07:07:22.866Z,978.47
2019-04-30T07:08:19.038Z,978.48
2019-04-30T07:10:22.483Z,978.55
2019-04-30T07:11:22.390Z,978.51
2019-04-30T07:13:15.614Z,978.46
2019-04-30T07:14:15.528Z,978.48
2019-04-30T07:16:20.856Z,978.43
2019-04-30T07:17:20.748Z,978.44
2019-04-30T07:19:34.576Z,978.48
2019-04-30T07:20:24.494Z,978.57
2019-04-30T07:22:39.428Z,978.48
2019-04-30T07:23:28.568Z,978.46
2019-04-30T07:25:32.060Z,978.43
2019-04-30T07:26:31.964Z,978.46
2019-04-30T07:28:44.743Z,978.42
2019-04-30T07:29:35.743Z,978.37
2019-04-30T07:31:40.069Z,978.42
2019-04-30T07:32:39.964Z,978.43
2019-04-30T07:33:39.870Z,978.46
2019-04-30T07:34:39.845Z,978.47
2019-04-30T07:35:39.976Z,978.46
2019-04-30T07:36:46.903Z,978.49
2019-04-30T07:37:39.588Z,978.54
2019-04-30T07:39:39.391Z,978.58
2019-04-30T07:40:39.299Z,978.61
2019-04-30T07:41:40.194Z,978.63
2019-04-30T07:42:44.610Z,978.69
2019-04-30T07:43:39.475Z,978.67
2019-04-30T07:44:39.519Z,978.69
2019-04-30T07:45:39.743Z,978.67
2019-04-30T07:46:41.208Z,978.70
2019-04-30T07:47:39.517Z,978.70
2019-04-30T07:48:40.288Z,978.71
2019-04-30T07:49:49.854Z,978.75
2019-04-30T07:50:40.922Z,978.69
2019-04-30T07:51:41.442Z,978.81
2019-04-30T07:52:55.514Z,978.68
2019-04-30T07:53:40.167Z,978.80
2019-04-30T07:54:39.602Z,978.76
2019-04-30T07:55:39.320Z,978.79
2019-04-30T07:56:41.509Z,978.77
2019-04-30T07:57:40.417Z,978.81
2019-04-30T07:58:39.111Z,978.82
2019-04-30T07:59:39.679Z,978.86
2019-04-30T08:00:40.303Z,978.81
2019-04-30T08:01:57.387Z,978.88
2019-04-30T08:02:42.979Z,978.86
2019-04-30T08:03:39.517Z,978.96
2019-04-30T08:04:37.363Z,978.91
2019-04-30T08:05:40.015Z,978.92
2019-04-30T08:06:37.197Z,978.95
2019-04-30T08:07:39.129Z,978.92
2019-04-30T08:08:37.114Z,978.96
2019-04-30T08:09:36.964Z,978.68
2019-04-30T08:09:41.567Z,978.97
2019-04-30T08:10:36.867Z,978.98
2019-04-30T08:11:41.933Z,979.00
2019-04-30T08:12:40.604Z,979.00
2019-04-30T08:13:37.528Z,979.11
2019-04-30T08:14:36.547Z,979.04
2019-04-30T08:15:36.468Z,978.98
2019-04-30T08:16:38.537Z,979.02
2019-04-30T08:17:36.308Z,979.01
2019-04-30T08:18:36.223Z,979.00
2019-04-30T08:19:36.143Z,979.03
2019-04-30T08:20:36.064Z,979.03
2019-04-30T08:21:35.980Z,979.13
2019-04-30T08:22:35.899Z,979.06
2019-04-30T08:23:37.240Z,979.06
2019-04-30T08:24:35.740Z,979.08
2019-04-30T08:25:35.659Z,979.04
2019-04-30T08:26:35.579Z,979.00
2019-04-30T08:27:35.499Z,979.03
2019-04-30T08:28:35.416Z,979.09
2019-04-30T08:29:35.340Z,979.16
2019-04-30T08:30:35.259Z,979.09
2019-04-30T08:31:35.184Z,979.19
2019-04-30T08:32:35.100Z,979.13
2019-04-30T08:33:35.018Z,979.14
2019-04-30T08:34:34.937Z,979.10
2019-04-30T08:35:34.860Z,979.10
2019-04-30T08:36:34.770Z,979.07
2019-04-30T08:37:34.693Z,979.05
2019-04-30T08:38:34.614Z,979.05
2019-04-30T08:39:34.537Z,979.05
2019-04-30T08:40:34.455Z,979.04
2019-04-30T08:41:34.372Z,979.04
2019-04-30T08:42:37.594Z,979.02
2019-04-30T08:43:34.214Z,979.05
2019-04-30T08:44:34.131Z,979.05
2019-04-30T08:45:34.880Z,979.03
2019-04-30T08:46:33.974Z,979.11
2019-04-30T08:47:33.896Z,979.05
2019-04-30T08:48:49.852Z,978.98
2019-04-30T08:49:34.053Z,979.02
2019-04-30T08:50:33.653Z,979.08
2019-04-30T08:51:33.700Z,979.06
2019-04-30T08:52:33.512Z,979.07
2019-04-30T08:53:34.103Z,979.08
2019-04-30T08:54:34.690Z,979.09
2019-04-30T08:55:33.251Z,979.09
2019-04-30T08:56:33.173Z,979.08
2019-04-30T08:57:33.090Z,979.10
2019-04-30T08:58:33.013Z,979.12
2019-04-30T08:59:32.935Z,979.13
2019-04-30T09:00:32.852Z,979.15
2019-04-30T09:01:32.771Z,979.09
2019-04-30T09:02:32.693Z,979.13
2019-04-30T09:03:32.615Z,979.07
2019-04-30T09:04:32.534Z,979.11
2019-04-30T09:05:32.451Z,979.10
2019-04-30T09:06:32.379Z,979.09
2019-04-30T09:07:32.293Z,979.09
2019-04-30T09:08:32.212Z,979.08
2019-04-30T09:09:32.137Z,979.06
2019-04-30T09:10:32.056Z,979.08
2019-04-30T09:11:38.511Z,979.10
2019-04-30T09:12:31.891Z,979.15
2019-04-30T09:13:31.814Z,979.15
2019-04-30T09:14:31.731Z,979.14
2019-04-30T09:15:31.655Z,979.17
2019-04-30T09:16:31.597Z,979.15
2019-04-30T09:17:31.492Z,979.10
2019-04-30T09:18:31.422Z,979.15
2019-04-30T09:19:31.332Z,979.14
2019-04-30T09:20:31.252Z,979.15
2019-04-30T09:21:31.176Z,979.12
2019-04-30T09:22:31.094Z,979.10
2019-04-30T09:23:43.932Z,979.13
2019-04-30T09:24:31.178Z,979.12
2019-04-30T09:25:30.856Z,979.09
2019-04-30T09:26:30.772Z,979.15
2019-04-30T09:27:30.697Z,979.06
2019-04-30T09:28:30.615Z,979.09
2019-04-30T09:29:30.535Z,979.06
2019-04-30T09:30:30.455Z,979.05
2019-04-30T09:31:30.379Z,979.06
2019-04-30T09:32:30.296Z,979.02
2019-04-30T09:33:30.222Z,979.00
2019-04-30T09:34:30.155Z,979.03
2019-04-30T09:35:32.115Z,979.00
2019-04-30T09:36:29.977Z,979.04
2019-04-30T09:37:30.602Z,979.03
2019-04-30T09:38:29.819Z,979.05
2019-04-30T09:39:29.763Z,979.03
2019-04-30T09:40:32.256Z,979.08
2019-04-30T09:41:29.577Z,979.01
2019-04-30T09:42:29.675Z,979.02
2019-04-30T09:43:29.422Z,979.03
2019-04-30T09:44:30.894Z,979.02
2019-04-30T09:45:29.256Z,978.98
2019-04-30T09:46:29.923Z,979.02
2019-04-30T09:47:29.629Z,979.01
2019-04-30T09:48:30.600Z,979.03
2019-04-30T09:49:29.433Z,978.96
2019-04-30T09:50:29.517Z,978.93
2019-04-30T09:51:30.573Z,978.95
2019-04-30T09:52:30.827Z,978.94
2019-04-30T09:53:29.761Z,978.94
2019-04-30T09:54:29.306Z,978.95
2019-04-30T09:55:29.035Z,978.93
2019-04-30T09:56:29.444Z,978.95
2019-04-30T09:57:29.011Z,978.94
2019-04-30T09:58:29.989Z,978.92
2019-04-30T09:59:29.122Z,978.94
2019-04-30T10:00:29.484Z,978.92
2019-04-30T10:01:27.971Z,978.98
2019-04-30T10:02:29.094Z,978.95
2019-04-30T10:03:30.304Z,978.94
2019-04-30T10:04:30.070Z,978.90
2019-04-30T10:05:29.222Z,978.92
2019-04-30T10:06:38.906Z,978.97
2019-04-30T10:07:29.308Z,978.91
2019-04-30T10:08:28.302Z,978.94
2019-04-30T10:09:29.215Z,978.91
2019-04-30T10:10:28.924Z,978.86
2019-04-30T10:11:27.171Z,978.85
2019-04-30T10:12:27.088Z,978.83
2019-04-30T10:13:27.010Z,978.81
2019-04-30T10:14:26.929Z,978.84
2019-04-30T10:15:28.844Z,978.80
2019-04-30T10:16:26.767Z,978.79
2019-04-30T10:17:26.684Z,978.77
2019-04-30T10:18:26.640Z,978.79
2019-04-30T10:19:26.526Z,978.78
2019-04-30T10:20:26.447Z,978.73
2019-04-30T10:21:26.368Z,978.74
2019-04-30T10:22:26.287Z,978.71
2019-04-30T10:23:26.211Z,978.71
2019-04-30T10:24:26.127Z,978.73
2019-04-30T10:25:26.048Z,978.73
2019-04-30T10:26:25.970Z,978.79
2019-04-30T10:27:25.913Z,978.72
2019-04-30T10:28:25.823Z,978.72
2019-04-30T10:29:25.729Z,978.71
2019-04-30T10:30:25.648Z,978.65
2019-04-30T10:31:25.569Z,978.61
2019-04-30T10:32:25.488Z,978.60
2019-04-30T10:33:25.412Z,978.59
2019-04-30T10:34:25.331Z,978.65
2019-04-30T10:35:25.246Z,978.60
2019-04-30T10:36:25.189Z,978.65
2019-04-30T10:37:25.094Z,978.64
2019-04-30T10:38:25.016Z,978.65
2019-04-30T10:39:24.939Z,978.65
2019-04-30T10:40:24.855Z,978.63
2019-04-30T10:41:24.791Z,978.75
2019-04-30T10:42:24.718Z,978.55
2019-04-30T10:43:24.617Z,978.58
2019-04-30T10:44:24.538Z,978.57
2019-04-30T10:45:24.457Z,978.56
2019-04-30T10:46:24.380Z,978.56
2019-04-30T10:47:24.302Z,978.55
2019-04-30T10:48:24.221Z,978.58
2019-04-30T10:49:24.143Z,978.58
2019-04-30T10:50:24.063Z,978.51
2019-04-30T10:51:23.985Z,978.56
2019-04-30T10:52:23.911Z,978.50
2019-04-30T10:53:23.879Z,978.49
2019-04-30T10:54:26.409Z,978.50
2019-04-30T10:55:23.676Z,978.52
2019-04-30T10:56:23.589Z,978.56
2019-04-30T10:57:23.512Z,978.50
2019-04-30T10:58:23.437Z,978.49
2019-04-30T10:59:23.354Z,978.49
2019-04-30T11:00:23.280Z,978.45
2019-04-30T11:01:23.196Z,978.43
2019-04-30T11:02:23.123Z,978.45
2019-04-30T11:03:23.292Z,978.40
2019-04-30T11:04:22.961Z,978.39
2019-04-30T11:05:22.884Z,978.40
2019-04-30T11:06:22.811Z,978.43
2019-04-30T11:07:22.728Z,978.40
2019-04-30T11:08:22.648Z,978.41
2019-04-30T11:09:22.574Z,978.43
2019-04-30T11:10:25.123Z,978.47
2019-04-30T11:11:22.417Z,978.41
2019-04-30T11:12:22.340Z,978.45
2019-04-30T11:13:22.258Z,978.49
2019-04-30T11:14:22.184Z,978.51
2019-04-30T11:15:22.112Z,978.40
2019-04-30T11:16:22.029Z,978.46
2019-04-30T11:17:22.127Z,978.45
2019-04-30T11:18:22.098Z,978.36
2019-04-30T11:19:22.041Z,978.39
2019-04-30T11:20:22.222Z,978.44
2019-04-30T11:21:21.793Z,978.34
2019-04-30T11:22:28.940Z,978.36
2019-04-30T11:24:35.947Z,978.37
2019-04-30T11:25:25.939Z,978.35
2019-04-30T11:27:30.943Z,978.33
2019-04-30T11:28:29.786Z,978.31
2019-04-30T11:30:33.978Z,978.32
2019-04-30T11:31:33.970Z,978.39
2019-04-30T11:33:26.575Z,978.34
2019-04-30T11:34:28.213Z,978.30
2019-04-30T11:36:30.267Z,978.28
2019-04-30T11:37:30.186Z,978.27
2019-04-30T11:39:34.494Z,978.25
2019-04-30T11:40:37.313Z,978.22
2019-04-30T11:42:38.216Z,978.24
2019-04-30T11:43:39.435Z,978.28
2019-04-30T11:44:38.684Z,978.23
2019-04-30T11:45:38.918Z,978.26
2019-04-30T11:46:38.456Z,978.27
2019-04-30T11:47:37.840Z,978.22
2019-04-30T11:48:38.732Z,978.24
2019-04-30T11:49:37.684Z,978.25
2019-04-30T11:50:39.373Z,978.23
2019-04-30T11:51:39.223Z,978.18
2019-04-30T11:52:37.468Z,978.22
2019-04-30T11:53:38.975Z,978.21
2019-04-30T11:54:48.715Z,978.21
2019-04-30T11:55:39.002Z,978.31
2019-04-30T11:56:38.414Z,978.26
2019-04-30T11:57:37.081Z,978.36
2019-04-30T11:58:38.889Z,978.27
2019-04-30T11:59:36.935Z,978.25
2019-04-30T12:00:36.865Z,978.34
2019-04-30T12:01:36.787Z,978.32
2019-04-30T12:02:36.725Z,978.35
2019-04-30T12:03:36.649Z,978.32
2019-04-30T12:04:36.604Z,978.21
2019-04-30T12:05:36.510Z,978.20
2019-04-30T12:06:36.441Z,978.14
2019-04-30T12:07:36.370Z,978.16
2019-04-30T12:08:36.301Z,978.16
2019-04-30T12:09:36.233Z,978.17
2019-04-30T12:10:36.163Z,978.20
2019-04-30T12:11:36.091Z,978.21
2019-04-30T12:12:36.024Z,978.24
2019-04-30T12:13:35.947Z,978.20
2019-04-30T12:14:35.879Z,978.20
2019-04-30T12:15:35.811Z,978.29
2019-04-30T12:16:35.739Z,978.27
2019-04-30T12:17:35.666Z,978.26
2019-04-30T12:18:35.595Z,978.21
2019-04-30T12:19:35.527Z,978.18
2019-04-30T12:20:35.450Z,978.21
2019-04-30T12:21:35.381Z,978.22
2019-04-30T12:22:35.311Z,978.21
2019-04-30T12:23:35.239Z,978.14
2019-04-30T12:24:35.168Z,978.13
2019-04-30T12:25:35.094Z,978.17
2019-04-30T12:26:35.022Z,978.15
2019-04-30T12:27:34.954Z,978.29
2019-04-30T12:28:34.885Z,978.26
2019-04-30T12:29:34.807Z,978.26
2019-04-30T12:30:34.737Z,978.29
2019-04-30T12:31:34.665Z,978.14
2019-04-30T12:32:35.297Z,978.13
2019-04-30T12:33:34.526Z,978.19
2019-04-30T12:34:34.455Z,978.12
2019-04-30T12:35:34.387Z,978.19
2019-04-30T12:36:34.314Z,978.11
2019-04-30T12:37:34.246Z,978.14
2019-04-30T12:38:34.173Z,978.08
2019-04-30T12:39:34.112Z,978.10
2019-04-30T12:40:34.037Z,978.08
2019-04-30T12:41:33.965Z,978.09
2019-04-30T12:42:33.898Z,978.15
2019-04-30T12:43:33.824Z,978.25
2019-04-30T12:44:33.754Z,978.25
2019-04-30T12:45:33.684Z,978.21
2019-04-30T12:46:33.609Z,978.16
2019-04-30T12:47:33.578Z,978.18
2019-04-30T12:48:33.477Z,978.18
2019-04-30T12:49:33.403Z,978.20
2019-04-30T12:50:33.338Z,978.26
2019-04-30T12:51:44.798Z,978.26
2019-04-30T12:52:33.636Z,978.13
2019-04-30T12:53:33.127Z,978.10
2019-04-30T12:54:33.122Z,978.19
2019-04-30T12:55:32.999Z,978.23
2019-04-30T12:56:32.946Z,978.19
2019-04-30T12:57:32.873Z,978.09
2019-04-30T12:58:32.832Z,978.06
2019-04-30T12:59:32.776Z,978.01
2019-04-30T13:00:32.732Z,978.03
2019-04-30T13:01:34.192Z,978.04
2019-04-30T13:02:32.550Z,978.00
2019-04-30T13:03:32.462Z,978.04
2019-04-30T13:04:32.401Z,977.99
2019-04-30T13:05:32.327Z,978.00
2019-04-30T13:06:32.695Z,978.05
2019-04-30T13:07:32.673Z,977.99
2019-04-30T13:08:32.662Z,977.97
2019-04-30T13:09:32.652Z,977.98
2019-04-30T13:10:32.336Z,977.97
2019-04-30T13:11:32.456Z,977.95
2019-04-30T13:12:32.502Z,977.92
2019-04-30T13:13:32.531Z,977.92
2019-04-30T13:14:32.205Z,977.88
2019-04-30T13:15:31.607Z,977.93
2019-04-30T13:16:31.553Z,977.93